ENAL

Ålesund Airport

Ålesund, Norway
METAR ENAL 201550Z 32006KT 280V350 9999 FEW015 SCT040 BKN055 12/09 Q1016
Observed Flight Rules
Aug-20 @ 15:50 UTC (34 minutes ago) Visual Flight Rules
Wind Visibility Clouds
320° at 6 knots 10,000+ meters
  • Few at 1,500' AGL
  • Scattered at 4,000' AGL
  • Broken at 5,500' AGL
Temperatures Readings
Current 12°C / 54°F
Dewpoint 9°C / 48°F
Humidity 82%
Altimeter 30" Hg
Pressure 1016 hPa
Elevation 22
METAR ENAL 201550Z 32006KT 280V350 9999 FEW015 SCT040 BKN055 12/09 Q1016
Observed Flight Rules
Aug-20 @ 15:50 UTC
(34 minutes ago)
VFR
Wind Visibility
320° at 6 knots 10,000+ meters
Clouds
  • Few at 1,500' AGL
  • Scattered at 4,000' AGL
  • Broken at 5,500' AGL
Temperature Dewpoint
12°C / 54°F 9°C / 48°F
Humidity Altimeter Pressure
82% 30" Hg 1016 hPa